Time;durP1;ratioP1;P1;durP2;ratioP2;P2;SDS_P1;SDS_P2;PMS_P1;PMS_P2;Temp;Humidity;BMP_temperature;BMP_pressure;BME280_temperature;BME280_humidity;BME280_pressure;Samples;Min_cycle;Max_cycle;Signal;HPM_P1;HPM_P2
2021/01/19 00:00:05;;;;;;;23.27;14.27;;;5.00;99.90;;;;;;5054113;28;20196;-78
2021/01/19 00:02:34;;;;;;;24.20;14.70;;;5.00;99.90;;;;;;5063738;28;20210;-79
2021/01/19 00:05:01;;;;;;;22.30;14.37;;;5.00;99.90;;;;;;5061812;28;20199;-80
2021/01/19 00:07:34;;;;;;;22.30;14.27;;;5.00;99.90;;;;;;5068234;28;20552;-79
2021/01/19 00:10:01;;;;;;;25.73;15.23;;;4.90;99.90;;;;;;5058481;28;20206;-79
2021/01/19 00:12:28;;;;;;;25.67;15.10;;;4.90;99.90;;;;;;5063577;28;20223;-79
2021/01/19 00:14:54;;;;;;;24.83;16.10;;;4.90;99.90;;;;;;5066749;28;20199;-79
2021/01/19 00:17:22;;;;;;;25.37;16.27;;;4.90;99.90;;;;;;5066774;28;20203;-79
2021/01/19 00:19:49;;;;;;;23.47;15.13;;;5.00;99.90;;;;;;5066569;28;20568;-79
2021/01/19 00:22:15;;;;;;;24.97;15.83;;;5.00;99.90;;;;;;5072431;28;20202;-79
2021/01/19 00:24:42;;;;;;;24.43;15.73;;;5.00;99.90;;;;;;5070568;28;20226;-79
2021/01/19 00:27:08;;;;;;;25.93;16.07;;;5.00;99.90;;;;;;5068274;28;20209;-79
2021/01/19 00:29:35;;;;;;;28.00;17.20;;;4.90;99.90;;;;;;5069017;28;20199;-79
2021/01/19 00:32:01;;;;;;;25.80;16.33;;;4.90;99.90;;;;;;5067009;28;20675;-79
2021/01/19 00:34:27;;;;;;;27.30;16.27;;;4.90;99.90;;;;;;5067252;28;20225;-79
2021/01/19 00:36:55;;;;;;;25.30;16.20;;;4.90;99.90;;;;;;5071184;28;20206;-79
2021/01/19 00:39:21;;;;;;;27.37;17.80;;;4.90;99.90;;;;;;5070135;28;20202;-80
2021/01/19 00:41:47;;;;;;;23.73;15.17;;;4.80;99.90;;;;;;5071893;28;20652;-80
2021/01/19 00:44:14;;;;;;;24.90;15.43;;;4.80;99.90;;;;;;5070472;28;20632;-79
2021/01/19 00:46:40;;;;;;;27.97;16.90;;;4.80;99.90;;;;;;5069235;28;20194;-80
2021/01/19 00:49:06;;;;;;;26.90;16.77;;;4.80;99.90;;;;;;5067865;28;20671;-79
2021/01/19 00:51:34;;;;;;;24.90;16.03;;;4.80;99.90;;;;;;5070621;28;20190;-79
2021/01/19 00:54:01;;;;;;;25.73;17.03;;;4.80;99.90;;;;;;5070233;28;20595;-80
2021/01/19 00:56:38;;;;;;;24.97;16.33;;;4.90;99.90;;;;;;5067279;28;20206;-79
2021/01/19 00:59:05;;;;;;;27.40;16.57;;;4.90;99.90;;;;;;5059634;28;20533;-79
2021/01/19 01:01:33;;;;;;;28.37;16.63;;;4.90;99.90;;;;;;5058414;28;20219;-80
2021/01/19 01:03:59;;;;;;;25.30;15.43;;;4.90;99.90;;;;;;5058338;28;20253;-80
2021/01/19 01:06:26;;;;;;;26.60;16.03;;;5.00;99.90;;;;;;5060537;28;20202;-79
2021/01/19 01:08:53;;;;;;;26.07;15.53;;;4.90;99.90;;;;;;5073316;28;20206;-79
2021/01/19 01:11:20;;;;;;;26.10;16.03;;;5.00;99.90;;;;;;5071727;28;20203;-79
2021/01/19 01:13:47;;;;;;;26.07;15.70;;;4.90;99.90;;;;;;5074042;28;20222;-79
2021/01/19 01:16:14;;;;;;;25.97;15.20;;;4.90;99.90;;;;;;5070289;28;20199;-79
2021/01/19 01:18:40;;;;;;;25.90;15.27;;;4.90;99.90;;;;;;5066401;28;20260;-80
2021/01/19 01:21:10;;;;;;;26.30;14.63;;;5.00;99.90;;;;;;5072356;28;20293;-80
2021/01/19 01:23:36;;;;;;;23.37;14.73;;;5.10;99.90;;;;;;5073545;28;20198;-79
2021/01/19 01:26:03;;;;;;;23.43;14.23;;;5.10;99.90;;;;;;5067864;28;20556;-79
2021/01/19 01:28:30;;;;;;;22.87;14.20;;;5.20;99.90;;;;;;5067175;28;20208;-80
2021/01/19 01:30:57;;;;;;;23.50;13.43;;;5.10;99.90;;;;;;5053899;28;20207;-79
2021/01/19 01:33:24;;;;;;;22.53;14.87;;;5.10;99.90;;;;;;5072474;28;20672;-80
2021/01/19 01:35:50;;;;;;;23.37;13.40;;;5.20;99.90;;;;;;5064757;28;20299;-80
2021/01/19 01:38:17;;;;;;;22.93;13.57;;;5.20;99.90;;;;;;5065862;28;20195;-79
2021/01/19 01:40:43;;;;;;;23.90;14.27;;;5.20;99.90;;;;;;5068750;28;20203;-79
2021/01/19 01:43:11;;;;;;;21.37;14.23;;;5.10;99.90;;;;;;5072237;28;20252;-79
2021/01/19 01:45:39;;;;;;;23.07;14.27;;;5.20;99.90;;;;;;5070934;28;20552;-79
2021/01/19 01:48:09;;;;;;;22.83;13.73;;;5.20;99.90;;;;;;5068306;28;20257;-79
2021/01/19 01:50:38;;;;;;;24.20;13.40;;;5.30;99.90;;;;;;5071696;28;20205;-79
2021/01/19 01:53:05;;;;;;;22.90;13.93;;;5.30;99.90;;;;;;5067056;28;20226;-79
2021/01/19 01:55:32;;;;;;;23.20;13.17;;;5.30;99.90;;;;;;5066436;28;20198;-79
2021/01/19 01:57:59;;;;;;;21.97;13.30;;;5.30;99.90;;;;;;5065919;28;20704;-80
2021/01/19 02:00:25;;;;;;;22.97;13.30;;;5.30;99.90;;;;;;5062127;28;20267;-79
2021/01/19 02:02:54;;;;;;;22.30;13.03;;;5.30;99.90;;;;;;5068748;28;20229;-79
2021/01/19 02:05:22;;;;;;;21.43;12.83;;;5.30;99.90;;;;;;5067921;28;20656;-79
2021/01/19 02:08:14;;;;;;;19.40;11.90;;;5.30;99.90;;;;;;5069364;28;20203;-79
2021/01/19 02:10:51;;;;;;;21.83;12.37;;;5.30;99.90;;;;;;5062553;28;20807;-79
2021/01/19 02:13:29;;;;;;;21.63;12.60;;;5.30;99.90;;;;;;5064662;28;20244;-79
2021/01/19 02:16:03;;;;;;;18.93;12.13;;;5.30;99.90;;;;;;5066389;28;20198;-79
2021/01/19 02:18:40;;;;;;;19.63;12.07;;;5.30;99.90;;;;;;5046314;28;20237;-79
2021/01/19 02:21:47;;;;;;;19.30;10.93;;;5.30;99.90;;;;;;5068127;28;20207;-79
2021/01/19 02:24:17;;;;;;;19.30;11.23;;;5.20;99.90;;;;;;5067223;28;20674;-79
2021/01/19 02:27:08;;;;;;;18.93;11.50;;;5.20;99.90;;;;;;5066899;28;20198;-79
2021/01/19 02:30:04;;;;;;;20.40;12.47;;;5.10;99.90;;;;;;5057880;28;20194;-79
2021/01/19 02:32:36;;;;;;;19.57;10.90;;;5.10;99.90;;;;;;5045337;28;20730;-79
2021/01/19 02:35:14;;;;;;;16.57;10.47;;;5.20;99.90;;;;;;5058205;28;20210;-80
2021/01/19 02:37:50;;;;;;;17.83;9.97;;;5.20;99.90;;;;;;5046285;28;20213;-79
2021/01/19 02:40:18;;;;;;;16.50;8.90;;;5.20;99.90;;;;;;5037960;28;20644;-79
2021/01/19 02:42:59;;;;;;;15.47;9.97;;;5.20;99.90;;;;;;5055274;28;20217;-80
2021/01/19 02:45:27;;;;;;;17.23;10.33;;;5.20;99.90;;;;;;5057647;28;20203;-79
2021/01/19 02:47:54;;;;;;;15.67;10.27;;;5.30;99.90;;;;;;5063734;28;20198;-79
2021/01/19 02:50:20;;;;;;;14.50;9.43;;;5.20;99.90;;;;;;5055492;28;20209;-79
2021/01/19 02:52:49;;;;;;;16.13;10.47;;;5.20;99.90;;;;;;5066610;28;20226;-79
2021/01/19 02:55:15;;;;;;;13.53;8.97;;;5.20;99.90;;;;;;5055351;28;20210;-79
2021/01/19 02:58:04;;;;;;;14.87;9.70;;;5.20;99.90;;;;;;5064639;28;20202;-79
2021/01/19 03:00:47;;;;;;;16.50;9.60;;;5.20;99.90;;;;;;5060592;28;20207;-79
2021/01/19 03:03:15;;;;;;;16.43;10.13;;;5.20;99.90;;;;;;5064063;28;20202;-79
2021/01/19 03:05:44;;;;;;;15.63;9.63;;;5.20;99.90;;;;;;5061846;28;20240;-79
2021/01/19 03:08:13;;;;;;;15.37;10.20;;;5.20;99.90;;;;;;5065971;28;20214;-79
2021/01/19 03:10:41;;;;;;;17.20;9.97;;;5.30;99.90;;;;;;5061036;28;20759;-79
2021/01/19 03:13:12;;;;;;;16.63;9.93;;;5.20;99.90;;;;;;5058024;28;20234;-79
2021/01/19 03:15:38;;;;;;;16.43;9.87;;;5.20;99.90;;;;;;5062132;28;20217;-79
2021/01/19 03:18:05;;;;;;;14.57;9.50;;;5.30;99.90;;;;;;5068075;28;20249;-79
2021/01/19 03:20:32;;;;;;;16.13;9.73;;;5.20;99.90;;;;;;5070368;28;20864;-79
2021/01/19 03:22:59;;;;;;;16.67;9.47;;;5.20;99.90;;;;;;5062135;28;20198;-79
2021/01/19 03:25:26;;;;;;;14.63;9.37;;;5.20;99.90;;;;;;5064444;28;20199;-79
2021/01/19 03:27:52;;;;;;;16.93;9.77;;;5.20;99.90;;;;;;5055660;28;20675;-79
2021/01/19 03:30:19;;;;;;;16.17;9.40;;;5.20;99.90;;;;;;5059134;28;20213;-79
2021/01/19 03:32:45;;;;;;;17.40;9.53;;;5.20;99.90;;;;;;5063089;28;20257;-79
2021/01/19 03:35:12;;;;;;;14.63;9.43;;;5.20;99.90;;;;;;5059829;28;20288;-79
2021/01/19 03:37:39;;;;;;;15.47;9.17;;;5.20;99.90;;;;;;5065603;28;20567;-79
2021/01/19 03:40:07;;;;;;;14.67;9.10;;;5.20;99.90;;;;;;5062409;28;20214;-79
2021/01/19 03:42:33;;;;;;;14.37;9.07;;;5.20;99.90;;;;;;5062536;28;20237;-79
2021/01/19 03:45:00;;;;;;;16.57;9.73;;;5.20;99.90;;;;;;5065944;28;20219;-80
2021/01/19 03:47:26;;;;;;;14.93;9.13;;;5.20;99.90;;;;;;5064662;28;20203;-79
2021/01/19 03:49:52;;;;;;;14.60;9.03;;;5.10;99.90;;;;;;5062999;28;20288;-79
2021/01/19 03:52:19;;;;;;;17.23;9.57;;;5.10;99.90;;;;;;5060508;28;20217;-79
2021/01/19 03:54:46;;;;;;;16.77;8.63;;;5.20;99.90;;;;;;5058740;28;20206;-79
2021/01/19 03:57:12;;;;;;;13.47;8.53;;;5.10;99.90;;;;;;5062879;28;20207;-79
2021/01/19 03:59:39;;;;;;;14.73;8.73;;;5.20;99.90;;;;;;5070902;28;20575;-79
2021/01/19 04:02:05;;;;;;;14.33;8.87;;;5.10;99.90;;;;;;5062941;28;20257;-79
2021/01/19 04:04:31;;;;;;;12.90;8.07;;;5.10;99.90;;;;;;5059249;28;20607;-79
2021/01/19 04:06:58;;;;;;;13.37;8.30;;;5.10;99.90;;;;;;5064679;28;20646;-79
2021/01/19 04:09:24;;;;;;;10.10;7.13;;;5.10;99.90;;;;;;5066667;28;20217;-79
2021/01/19 04:11:51;;;;;;;10.83;7.33;;;5.10;99.90;;;;;;5071066;28;20195;-79
2021/01/19 04:14:18;;;;;;;12.00;7.53;;;5.10;99.90;;;;;;5071037;28;20221;-79
2021/01/19 04:16:44;;;;;;;11.93;7.37;;;5.20;99.90;;;;;;5064864;28;20206;-79
2021/01/19 04:19:10;;;;;;;13.60;7.53;;;5.20;99.90;;;;;;5069797;28;20209;-79
2021/01/19 04:21:38;;;;;;;16.13;7.60;;;5.10;99.90;;;;;;5059368;28;20428;-79
2021/01/19 04:24:06;;;;;;;11.93;7.73;;;5.10;99.90;;;;;;5059584;28;20199;-79
2021/01/19 04:26:32;;;;;;;14.40;8.37;;;5.00;99.90;;;;;;5054746;28;20210;-79
2021/01/19 04:28:59;;;;;;;11.87;7.97;;;5.00;99.90;;;;;;5067407;28;20229;-79
2021/01/19 04:31:25;;;;;;;9.13;6.73;;;4.90;99.90;;;;;;5068386;28;20203;-79
2021/01/19 04:33:52;;;;;;;11.60;7.33;;;4.90;99.90;;;;;;5065177;28;20228;-79
2021/01/19 04:36:18;;;;;;;10.70;7.03;;;4.90;99.90;;;;;;5071706;28;20549;-79
2021/01/19 04:38:44;;;;;;;11.97;7.03;;;4.90;99.90;;;;;;5061820;28;20550;-79
2021/01/19 04:41:12;;;;;;;11.27;6.73;;;4.90;99.90;;;;;;5053617;28;20209;-79
2021/01/19 04:43:38;;;;;;;9.77;6.50;;;4.90;99.90;;;;;;5056651;28;20203;-79
2021/01/19 04:46:09;;;;;;;9.97;5.50;;;4.80;99.90;;;;;;5060984;28;20206;-79
2021/01/19 04:48:37;;;;;;;8.37;5.50;;;4.80;99.90;;;;;;5059034;28;20645;-79
2021/01/19 04:51:05;;;;;;;9.20;5.50;;;4.90;99.90;;;;;;5065451;28;20209;-80
2021/01/19 04:53:35;;;;;;;8.07;4.90;;;4.90;99.90;;;;;;5067503;28;20218;-80
2021/01/19 04:56:07;;;;;;;7.97;5.30;;;4.90;99.90;;;;;;5060640;28;20206;-79
2021/01/19 04:58:36;;;;;;;6.13;4.83;;;4.90;99.90;;;;;;5056266;28;20214;-79
2021/01/19 05:01:08;;;;;;;7.67;5.27;;;4.90;99.90;;;;;;5064517;28;20195;-79
2021/01/19 05:03:40;;;;;;;7.37;4.60;;;5.00;99.90;;;;;;5066486;28;20199;-79
2021/01/19 05:06:14;;;;;;;8.13;4.77;;;5.00;99.90;;;;;;5058916;28;20261;-79
2021/01/19 05:08:58;;;;;;;6.70;4.40;;;4.90;99.90;;;;;;5060036;28;20209;-79
2021/01/19 05:11:28;;;;;;;6.23;4.40;;;4.90;99.90;;;;;;5065830;28;20202;-79
2021/01/19 05:13:59;;;;;;;7.53;4.10;;;5.00;99.90;;;;;;5063031;28;20269;-79
2021/01/19 05:16:30;;;;;;;6.07;3.97;;;4.90;99.90;;;;;;5068690;28;20237;-79
2021/01/19 05:18:56;;;;;;;8.07;4.20;;;5.00;99.90;;;;;;5066814;28;20198;-79
2021/01/19 05:21:22;;;;;;;8.13;4.03;;;5.00;99.90;;;;;;5065337;28;20672;-79
2021/01/19 05:23:49;;;;;;;6.07;3.90;;;4.90;99.90;;;;;;5071746;28;20564;-79
2021/01/19 05:26:17;;;;;;;8.23;4.13;;;4.90;99.90;;;;;;5064983;28;20603;-79
2021/01/19 05:28:47;;;;;;;5.67;3.70;;;4.90;99.90;;;;;;5068052;28;20259;-79
2021/01/19 05:31:25;;;;;;;5.53;3.77;;;4.90;99.90;;;;;;5058755;28;20210;-79
2021/01/19 05:34:09;;;;;;;7.80;3.30;;;4.90;99.90;;;;;;5065771;28;20295;-77
2021/01/19 05:36:38;;;;;;;5.03;3.63;;;4.90;99.90;;;;;;5063893;28;20215;-77
2021/01/19 05:39:06;;;;;;;6.87;3.70;;;5.00;99.90;;;;;;5056818;28;20316;-77
2021/01/19 05:41:35;;;;;;;7.73;4.10;;;5.00;99.90;;;;;;5057828;28;20214;-77
2021/01/19 05:44:13;;;;;;;5.17;3.60;;;4.90;99.90;;;;;;5056067;28;20195;-77
2021/01/19 05:46:48;;;;;;;4.87;3.50;;;5.00;99.90;;;;;;5057463;28;20665;-77
2021/01/19 05:49:21;;;;;;;6.23;4.13;;;5.00;99.90;;;;;;5055674;28;20796;-77
2021/01/19 05:51:48;;;;;;;5.43;3.33;;;5.00;99.90;;;;;;5063838;28;20213;-77
2021/01/19 05:54:29;;;;;;;5.33;3.37;;;5.10;99.90;;;;;;5059278;28;20229;-77
2021/01/19 05:57:08;;;;;;;7.57;3.87;;;5.10;99.90;;;;;;5052023;28;20202;-77
2021/01/19 05:59:37;;;;;;;5.27;4.30;;;5.00;99.90;;;;;;5058997;28;20194;-77
2021/01/19 06:02:06;;;;;;;3.83;2.87;;;5.10;99.90;;;;;;5058735;28;20560;-77
2021/01/19 06:04:39;;;;;;;4.90;3.40;;;5.10;99.90;;;;;;5062214;28;20226;-77
2021/01/19 06:07:06;;;;;;;4.50;3.03;;;5.10;99.90;;;;;;5058806;28;20268;-77
2021/01/19 06:09:33;;;;;;;4.97;2.97;;;5.10;99.90;;;;;;5057496;28;20653;-77
2021/01/19 06:12:00;;;;;;;5.70;2.70;;;5.00;99.90;;;;;;5060022;28;20210;-77
2021/01/19 06:14:28;;;;;;;3.03;2.70;;;5.10;99.90;;;;;;5063281;28;20747;-77
2021/01/19 06:17:08;;;;;;;4.83;2.80;;;5.10;99.90;;;;;;5066963;28;20206;-77
2021/01/19 06:19:36;;;;;;;3.63;2.80;;;5.10;99.90;;;;;;5070680;28;20571;-77
2021/01/19 06:22:07;;;;;;;4.20;2.77;;;5.20;99.90;;;;;;5064073;28;20207;-77
2021/01/19 06:24:39;;;;;;;5.43;3.27;;;5.10;99.90;;;;;;5071278;28;20201;-77
2021/01/19 06:27:06;;;;;;;4.33;3.03;;;5.20;99.90;;;;;;5072430;28;20202;-77
2021/01/19 06:29:33;;;;;;;4.10;2.70;;;5.20;99.90;;;;;;5061079;28;20207;-77
2021/01/19 06:32:01;;;;;;;5.43;2.70;;;5.20;99.90;;;;;;5072364;28;20255;-77
2021/01/19 06:34:30;;;;;;;3.80;2.60;;;5.20;99.90;;;;;;5070959;28;20416;-78
2021/01/19 06:36:58;;;;;;;4.20;2.80;;;5.10;99.90;;;;;;5071909;28;20194;-77
2021/01/19 06:39:36;;;;;;;5.57;2.70;;;5.10;99.90;;;;;;5059293;28;20207;-77
2021/01/19 06:42:08;;;;;;;3.43;2.37;;;5.10;99.90;;;;;;5059693;28;20206;-78
2021/01/19 06:44:38;;;;;;;5.17;2.80;;;5.10;99.90;;;;;;5059759;28;20661;-77
2021/01/19 06:47:06;;;;;;;7.10;2.87;;;5.10;99.90;;;;;;5065225;28;20198;-77
2021/01/19 06:49:33;;;;;;;5.90;2.73;;;5.00;99.90;;;;;;5058545;28;20210;-77
2021/01/19 06:52:09;;;;;;;6.80;2.97;;;5.00;99.90;;;;;;5062808;28;20207;-77
2021/01/19 06:55:02;;;;;;;2.90;2.57;;;5.00;99.90;;;;;;5056932;28;20722;-78
2021/01/19 06:57:33;;;;;;;4.87;2.80;;;5.00;99.90;;;;;;5056868;28;20292;-77
2021/01/19 07:00:08;;;;;;;5.43;3.03;;;5.00;99.90;;;;;;5061017;28;20552;-77
2021/01/19 07:02:36;;;;;;;4.13;2.83;;;5.00;99.90;;;;;;5055680;28;20788;-78
2021/01/19 07:05:08;;;;;;;6.80;2.73;;;5.00;99.90;;;;;;5065768;28;20202;-77
2021/01/19 07:07:39;;;;;;;5.03;2.90;;;4.90;99.90;;;;;;5060463;28;20204;-77
2021/01/19 07:10:08;;;;;;;4.50;2.60;;;5.00;99.90;;;;;;5063362;28;20207;-77
2021/01/19 07:13:03;;;;;;;5.03;2.50;;;4.90;99.90;;;;;;5068140;28;20210;-77
2021/01/19 07:16:12;;;;;;;5.27;2.50;;;4.90;99.90;;;;;;5054390;28;20281;-77
2021/01/19 07:18:48;;;;;;;8.33;3.00;;;4.90;99.90;;;;;;5064180;28;20209;-77
2021/01/19 07:21:15;;;;;;;7.63;2.40;;;4.90;99.90;;;;;;5064051;28;20283;-77
2021/01/19 07:24:17;;;;;;;8.27;2.77;;;4.80;99.90;;;;;;5066664;28;20210;-77
2021/01/19 07:26:45;;;;;;;5.60;2.37;;;4.80;99.90;;;;;;5055566;28;20212;-76
2021/01/19 07:29:11;;;;;;;5.17;2.33;;;4.80;99.90;;;;;;5058338;28;20644;-76
2021/01/19 07:31:38;;;;;;;7.87;2.10;;;4.80;99.90;;;;;;5064905;28;20213;-76
2021/01/19 07:34:05;;;;;;;6.53;2.57;;;4.80;99.90;;;;;;5062130;28;20225;-77
2021/01/19 07:36:32;;;;;;;7.03;2.47;;;4.80;99.90;;;;;;5064992;28;20207;-77
2021/01/19 07:38:59;;;;;;;4.23;2.87;;;4.70;99.90;;;;;;5064100;28;20214;-77
2021/01/19 07:41:27;;;;;;;8.20;2.40;;;4.70;99.90;;;;;;5063903;28;20202;-77
2021/01/19 07:43:53;;;;;;;6.93;2.77;;;4.70;99.90;;;;;;5068843;28;20209;-77
2021/01/19 07:46:22;;;;;;;7.50;2.43;;;4.70;99.90;;;;;;5058633;28;20207;-77
2021/01/19 07:49:00;;;;;;;7.70;2.50;;;4.70;99.90;;;;;;5062947;28;20568;-77
2021/01/19 07:51:37;;;;;;;9.83;2.90;;;4.70;99.90;;;;;;5068023;28;20202;-77
2021/01/19 07:54:05;;;;;;;5.10;1.97;;;4.70;99.90;;;;;;5071084;28;20225;-77
2021/01/19 07:56:33;;;;;;;3.93;2.20;;;4.70;99.90;;;;;;5064027;28;20203;-76
2021/01/19 07:59:00;;;;;;;7.37;2.60;;;4.70;99.90;;;;;;5068053;28;20194;-76
2021/01/19 08:01:28;;;;;;;6.50;3.03;;;4.70;99.90;;;;;;5063953;28;20206;-76
2021/01/19 08:03:55;;;;;;;6.97;2.80;;;4.70;99.90;;;;;;5057795;28;20205;-77
2021/01/19 08:06:31;;;;;;;6.60;2.83;;;4.70;99.90;;;;;;5072252;28;20206;-76
2021/01/19 08:09:09;;;;;;;7.17;2.80;;;4.70;99.90;;;;;;5057793;28;20198;-77
2021/01/19 08:11:35;;;;;;;4.43;2.57;;;4.70;99.90;;;;;;5069201;28;20213;-76
2021/01/19 08:14:02;;;;;;;6.90;3.00;;;4.70;99.90;;;;;;5065074;28;20227;-76
2021/01/19 08:16:31;;;;;;;10.40;3.10;;;4.70;99.90;;;;;;5068233;28;20203;-77
2021/01/19 08:19:05;;;;;;;5.53;2.90;;;4.70;99.90;;;;;;5058749;28;20213;-77
2021/01/19 08:21:34;;;;;;;8.20;3.00;;;4.70;99.90;;;;;;5073753;28;20272;-77
2021/01/19 08:24:04;;;;;;;6.90;3.80;;;4.70;99.90;;;;;;5061794;28;20657;-76
2021/01/19 08:26:32;;;;;;;5.93;2.70;;;4.70;99.90;;;;;;5068980;28;20579;-76
2021/01/19 08:29:00;;;;;;;3.30;2.53;;;4.70;99.90;;;;;;5068072;28;20203;-76
2021/01/19 08:31:28;;;;;;;5.83;2.73;;;4.70;99.90;;;;;;5072023;28;20206;-77
2021/01/19 08:33:59;;;;;;;8.20;2.90;;;4.70;99.90;;;;;;5066059;28;20218;-78
2021/01/19 08:36:27;;;;;;;9.13;2.80;;;4.70;99.90;;;;;;5065343;28;20225;-76
2021/01/19 08:38:56;;;;;;;5.57;2.90;;;4.70;99.90;;;;;;5058036;28;20203;-77
2021/01/19 08:41:22;;;;;;;7.10;3.10;;;4.70;99.90;;;;;;5058524;28;20207;-77
2021/01/19 08:43:58;;;;;;;7.53;2.90;;;4.60;99.90;;;;;;5071607;28;20202;-77
2021/01/19 08:46:25;;;;;;;5.23;2.67;;;4.60;99.90;;;;;;5060492;28;20210;-76
2021/01/19 08:48:53;;;;;;;8.30;2.80;;;4.60;99.90;;;;;;5060624;28;20209;-76
2021/01/19 08:51:23;;;;;;;5.40;2.73;;;4.60;99.90;;;;;;5061823;28;20255;-77
2021/01/19 08:53:50;;;;;;;6.03;2.50;;;4.70;99.90;;;;;;5059678;28;20236;-77
2021/01/19 08:56:17;;;;;;;5.80;2.93;;;4.60;99.90;;;;;;5066700;28;20233;-76
2021/01/19 08:58:44;;;;;;;3.93;2.87;;;4.60;99.90;;;;;;5056656;28;20195;-77
2021/01/19 09:01:11;;;;;;;5.73;2.53;;;4.60;99.90;;;;;;5063002;28;20225;-77
2021/01/19 09:03:37;;;;;;;4.77;2.40;;;4.60;99.90;;;;;;5066825;28;20714;-76
2021/01/19 09:06:05;;;;;;;4.70;2.40;;;4.60;99.90;;;;;;5067884;28;20209;-76
2021/01/19 09:08:32;;;;;;;4.10;2.40;;;4.60;99.90;;;;;;5063850;28;20207;-75
2021/01/19 09:11:03;;;;;;;6.60;2.67;;;4.60;99.90;;;;;;5066247;28;20209;-76
2021/01/19 09:13:32;;;;;;;7.90;2.70;;;4.60;99.90;;;;;;5059944;28;20230;-75
2021/01/19 09:15:58;;;;;;;4.17;2.30;;;4.60;99.90;;;;;;5058704;28;20199;-76
2021/01/19 09:18:26;;;;;;;3.87;2.30;;;4.50;99.90;;;;;;5058045;28;20215;-76
2021/01/19 09:21:04;;;;;;;4.87;2.37;;;4.60;99.90;;;;;;5064413;28;20293;-75
2021/01/19 09:23:32;;;;;;;5.47;2.40;;;4.50;99.90;;;;;;5061357;28;20251;-77
2021/01/19 09:26:06;;;;;;;3.77;2.43;;;4.50;99.90;;;;;;5064300;28;20563;-77
2021/01/19 09:28:36;;;;;;;8.07;2.80;;;4.50;99.90;;;;;;5059569;28;20202;-76
2021/01/19 09:31:16;;;;;;;3.27;2.20;;;4.50;99.90;;;;;;5071648;28;20202;-75
2021/01/19 09:33:45;;;;;;;5.93;3.20;;;4.40;99.90;;;;;;5066313;28;20222;-76
2021/01/19 09:36:13;;;;;;;6.10;2.70;;;4.40;99.90;;;;;;5063169;28;20217;-76
2021/01/19 09:38:40;;;;;;;4.70;2.50;;;4.40;99.90;;;;;;5067104;28;20202;-76
2021/01/19 09:41:07;;;;;;;4.07;2.47;;;4.50;99.90;;;;;;5066544;28;20675;-76
2021/01/19 09:43:36;;;;;;;4.23;2.30;;;4.40;99.90;;;;;;5056089;28;20703;-76
2021/01/19 09:46:05;;;;;;;5.20;2.23;;;4.40;99.90;;;;;;5068290;28;20567;-76
2021/01/19 09:48:32;;;;;;;6.20;2.50;;;4.40;99.90;;;;;;5062265;28;20224;-76
2021/01/19 09:51:01;;;;;;;3.27;2.30;;;4.40;99.90;;;;;;5065309;28;20202;-75
2021/01/19 09:53:30;;;;;;;5.33;2.87;;;4.40;99.90;;;;;;5064243;28;20214;-75
2021/01/19 09:55:57;;;;;;;2.90;2.20;;;4.40;99.90;;;;;;5063887;28;20644;-76
2021/01/19 09:58:26;;;;;;;3.70;2.40;;;4.30;99.90;;;;;;5062189;28;20249;-75
2021/01/19 10:00:53;;;;;;;6.00;3.33;;;4.40;99.90;;;;;;5070383;28;20213;-76
2021/01/19 10:03:25;;;;;;;7.47;2.93;;;4.40;99.90;;;;;;5062966;28;20213;-77
2021/01/19 10:06:04;;;;;;;5.97;2.93;;;4.40;99.90;;;;;;5063072;28;20241;-78
2021/01/19 10:08:31;;;;;;;3.40;2.57;;;4.40;99.90;;;;;;5064014;28;20211;-78
2021/01/19 10:10:57;;;;;;;4.60;2.53;;;4.40;99.90;;;;;;5060819;28;20205;-78
2021/01/19 10:13:25;;;;;;;2.70;2.20;;;4.40;99.90;;;;;;5070429;28;20226;-77
2021/01/19 10:16:03;;;;;;;3.73;2.10;;;4.40;99.90;;;;;;5061547;28;20294;-77
2021/01/19 10:18:31;;;;;;;5.03;2.33;;;4.40;99.90;;;;;;5067325;28;20595;-77
2021/01/19 10:20:58;;;;;;;3.57;2.20;;;4.40;99.90;;;;;;5069070;28;20205;-77
2021/01/19 10:23:30;;;;;;;4.90;2.60;;;4.40;99.90;;;;;;5064596;28;20207;-77
2021/01/19 10:26:07;;;;;;;3.47;2.43;;;4.50;99.90;;;;;;5059203;28;20703;-77
2021/01/19 10:28:40;;;;;;;2.63;1.97;;;4.40;99.90;;;;;;5063397;28;20207;-77
2021/01/19 10:31:22;;;;;;;4.30;2.13;;;4.50;99.90;;;;;;5061134;28;20214;-77
2021/01/19 10:34:00;;;;;;;4.00;2.10;;;4.50;99.90;;;;;;5058666;28;20229;-77
2021/01/19 10:36:27;;;;;;;2.80;1.80;;;4.50;99.90;;;;;;5062803;28;20336;-77
2021/01/19 10:38:54;;;;;;;2.83;1.70;;;4.50;99.90;;;;;;5058380;28;20211;-77
2021/01/19 10:41:25;;;;;;;3.17;1.90;;;4.50;99.90;;;;;;5059134;28;20199;-75
2021/01/19 10:43:53;;;;;;;4.10;1.90;;;4.40;99.90;;;;;;5064982;28;20201;-75
2021/01/19 10:46:24;;;;;;;1.67;1.50;;;4.50;99.90;;;;;;5068320;28;20202;-76
2021/01/19 10:49:05;;;;;;;1.87;1.50;;;4.40;99.90;;;;;;5070588;28;20648;-75
2021/01/19 10:51:32;;;;;;;3.30;1.27;;;4.40;99.90;;;;;;5066797;28;20206;-76
2021/01/19 10:54:13;;;;;;;1.60;1.40;;;4.40;99.90;;;;;;5067986;28;20256;-76
2021/01/19 10:56:41;;;;;;;2.00;1.57;;;4.40;99.90;;;;;;5063024;28;20199;-76
2021/01/19 10:59:09;;;;;;;2.00;1.13;;;4.40;99.90;;;;;;5064138;28;20248;-76
2021/01/19 11:01:36;;;;;;;2.93;1.40;;;4.40;99.90;;;;;;5065161;28;20213;-76
2021/01/19 11:04:04;;;;;;;1.20;0.90;;;4.40;99.90;;;;;;5059335;28;20681;-76
2021/01/19 11:06:34;;;;;;;2.70;1.40;;;4.50;99.90;;;;;;5060653;28;20207;-76
2021/01/19 11:09:01;;;;;;;1.50;1.40;;;4.50;99.90;;;;;;5067525;28;20204;-76
2021/01/19 11:11:28;;;;;;;1.50;1.20;;;4.50;99.90;;;;;;5070478;28;20210;-76
2021/01/19 11:13:59;;;;;;;3.23;1.50;;;4.50;99.90;;;;;;5066777;28;20568;-76
2021/01/19 11:16:30;;;;;;;0.90;0.90;;;4.50;99.90;;;;;;5064229;28;20632;-76
2021/01/19 11:18:59;;;;;;;2.07;1.30;;;4.60;99.90;;;;;;5051666;28;20536;-77
2021/01/19 11:21:26;;;;;;;0.77;0.77;;;4.60;99.90;;;;;;5058493;28;20718;-76
2021/01/19 11:23:52;;;;;;;0.93;0.83;;;4.60;99.90;;;;;;5064467;28;20290;-77
2021/01/19 11:26:19;;;;;;;1.67;0.80;;;4.60;99.90;;;;;;5062687;28;20677;-76
2021/01/19 11:28:46;;;;;;;1.13;0.90;;;4.60;99.90;;;;;;5063910;28;20202;-77
2021/01/19 11:31:12;;;;;;;1.57;1.00;;;4.60;99.90;;;;;;5062521;28;20202;-76
2021/01/19 11:33:39;;;;;;;1.30;0.50;;;4.70;99.90;;;;;;5059941;28;20707;-76
2021/01/19 11:36:06;;;;;;;0.60;0.60;;;4.60;99.90;;;;;;5061654;28;20252;-76
2021/01/19 11:38:33;;;;;;;1.27;0.80;;;4.70;99.90;;;;;;5067258;28;20289;-76
2021/01/19 11:41:00;;;;;;;0.83;0.80;;;4.70;99.90;;;;;;5058686;28;20209;-78
2021/01/19 11:43:27;;;;;;;0.80;0.80;;;4.80;99.90;;;;;;5063867;28;20199;-77
2021/01/19 11:45:54;;;;;;;0.80;0.60;;;4.80;99.90;;;;;;5058102;28;20208;-76
2021/01/19 11:48:21;;;;;;;0.60;0.60;;;4.70;99.90;;;;;;5061504;28;20243;-76
2021/01/19 11:50:47;;;;;;;0.93;0.60;;;4.70;99.90;;;;;;5061224;28;20209;-76
2021/01/19 11:53:14;;;;;;;0.97;0.53;;;4.80;99.90;;;;;;5060943;28;20211;-77
2021/01/19 11:55:40;;;;;;;1.53;1.10;;;4.80;99.90;;;;;;5065346;28;20217;-77
2021/01/19 11:58:08;;;;;;;1.07;0.50;;;4.70;99.90;;;;;;5063495;28;20217;-77
2021/01/19 12:00:35;;;;;;;1.40;0.40;;;4.70;99.90;;;;;;5057806;28;20218;-77
2021/01/19 12:03:02;;;;;;;0.73;0.60;;;4.70;99.90;;;;;;5063603;28;20661;-77
2021/01/19 12:05:29;;;;;;;0.43;0.40;;;4.70;99.90;;;;;;5061329;28;20570;-77
2021/01/19 12:07:55;;;;;;;1.23;0.63;;;4.80;99.90;;;;;;5062664;28;20206;-77
2021/01/19 12:10:21;;;;;;;0.67;0.60;;;4.80;99.90;;;;;;5062401;28;20203;-77
2021/01/19 12:12:48;;;;;;;0.57;0.40;;;4.80;99.90;;;;;;5062843;28;20214;-77
2021/01/19 12:15:15;;;;;;;0.87;0.70;;;4.80;99.90;;;;;;5059517;28;20264;-77
2021/01/19 12:17:41;;;;;;;0.77;0.77;;;4.80;99.90;;;;;;5062101;28;20203;-77
2021/01/19 12:20:10;;;;;;;0.80;0.63;;;4.70;99.90;;;;;;5068414;28;20241;-76
2021/01/19 12:22:36;;;;;;;0.37;0.37;;;4.80;99.90;;;;;;5065767;28;20214;-76
2021/01/19 12:25:03;;;;;;;0.70;0.70;;;4.80;99.90;;;;;;5068311;28;20252;-76
2021/01/19 12:27:30;;;;;;;1.23;0.70;;;4.80;99.90;;;;;;5065959;28;20203;-76
2021/01/19 12:29:56;;;;;;;0.37;0.37;;;4.80;99.90;;;;;;5067999;28;20202;-76
2021/01/19 12:32:22;;;;;;;0.80;0.40;;;4.80;99.90;;;;;;5067281;28;20217;-76
2021/01/19 12:34:50;;;;;;;0.90;0.80;;;4.80;99.90;;;;;;5063924;28;20541;-77
2021/01/19 12:37:17;;;;;;;0.60;0.60;;;4.80;99.90;;;;;;5062948;28;20660;-77
2021/01/19 12:39:44;;;;;;;1.40;0.90;;;4.90;99.90;;;;;;5061065;28;20214;-76
2021/01/19 12:42:10;;;;;;;0.90;0.73;;;4.90;99.90;;;;;;5066420;28;20210;-76
2021/01/19 12:44:37;;;;;;;0.60;0.60;;;4.90;99.90;;;;;;5062417;28;20369;-76
2021/01/19 12:47:04;;;;;;;0.50;0.50;;;4.90;99.90;;;;;;5062791;28;20203;-76
2021/01/19 12:49:30;;;;;;;0.87;0.57;;;4.90;99.90;;;;;;5067160;28;20205;-76
2021/01/19 12:51:56;;;;;;;1.53;0.90;;;4.90;99.90;;;;;;5066015;28;20575;-74
2021/01/19 12:54:23;;;;;;;1.83;0.90;;;4.90;99.90;;;;;;5064343;28;20233;-75
2021/01/19 12:56:50;;;;;;;0.70;0.70;;;4.90;99.90;;;;;;5064387;28;20215;-76
2021/01/19 12:59:16;;;;;;;0.80;0.80;;;4.90;99.90;;;;;;5066166;28;20210;-76
2021/01/19 13:01:43;;;;;;;0.57;0.57;;;4.90;99.90;;;;;;5063561;28;20625;-77